Sumihiro Maru — JD3168 — position and weather

sailwx.info

Track history (hours):
 
Tides and Currents Weather Stations Pressure Air Temp Water Temp Dewpoint Dewpoint Depression Visibility Wind Speed Wind Dir Waves Ship Positions

Sumihiro Maru

Last reported at 2017-Sep-21 08:25 UTC. Time now 2017-Sep-22 04:19 UTC.
Position N 34°37' E 134°56'.

Length 63 m; draft 4 m.

Type: Cargo ship. MMSI: 431002283.

Date/timePositionNaut miles runAvg speedWind from/ knotsBaromVisibWave heightAir tempDewpointWater temp
2017-Sep-21 08:25N 34°37' E 134°56'5 9.9
2017-Sep-21 07:57N 34°37' E 135°01'3 7.1
2017-Sep-21 07:30N 34°36' E 135°05'4 7.7
2017-Sep-21 07:00N 34°32' E 135°04'219 6.9
2017-Sep-19 23:32N 34°58' E 139°29'1 8.6
2017-Sep-19 23:27N 34°59' E 139°29'4 8.7
2017-Sep-19 23:00N 35°01' E 139°33'5 9.3
2017-Sep-19 22:30N 35°04' E 139°37'510.2
2017-Sep-19 22:00N 35°07' E 139°42'510.6
2017-Sep-19 21:30N 35°12' E 139°46'510.3
2017-Sep-19 21:00N 35°17' E 139°45'510.8
2017-Sep-19 20:30N 35°22' E 139°42'5 9.3
2017-Sep-19 20:00N 35°25' E 139°46'5 9.5
2017-Sep-19 19:30N 35°22' E 139°50'1 2.6
2017-Sep-19 19:00N 35°21' E 139°51'0 0.0
2017-Sep-19 18:30N 35°21' E 139°51'0 0.0
2017-Sep-19 18:00N 35°21' E 139°51'0 0.0
2017-Sep-19 17:30N 35°21' E 139°51'0 0.0
2017-Sep-19 17:01N 35°21' E 139°51'0 0.0
2017-Sep-19 16:30N 35°21' E 139°51'0 0.0
2017-Sep-19 16:00N 35°21' E 139°51'0 0.0
2017-Sep-19 15:30N 35°21' E 139°51'0 0.0
2017-Sep-19 15:00N 35°21' E 139°51'0 0.0
2017-Sep-19 14:30N 35°21' E 139°51'0 0.0
2017-Sep-19 14:01N 35°21' E 139°51'0 0.0
2017-Sep-19 13:30N 35°21' E 139°51'0 0.0
2017-Sep-19 13:00N 35°21' E 139°51'0 0.0
2017-Sep-19 12:30N 35°21' E 139°51'0 0.0
2017-Sep-19 12:00N 35°21' E 139°51'0 0.0
2017-Sep-19 11:30N 35°21' E 139°51'0 0.0
2017-Sep-19 11:00N 35°21' E 139°51'0 0.0
2017-Sep-19 10:30N 35°21' E 139°51'0 0.0
2017-Sep-19 10:00N 35°21' E 139°51'0 0.0
2017-Sep-19 09:30N 35°21' E 139°51'0 0.0
2017-Sep-19 09:00N 35°21' E 139°51'0 0.0
2017-Sep-19 08:30N 35°21' E 139°51'0 0.0
2017-Sep-19 08:00N 35°21' E 139°51'0 0.0
2017-Sep-19 07:30N 35°21' E 139°51'0 0.0
2017-Sep-19 07:00N 35°21' E 139°51'0 0.0
2017-Sep-19 06:30N 35°21' E 139°51'0 0.0
2017-Sep-19 06:00N 35°21' E 139°51'0 0.0
2017-Sep-19 05:30N 35°21' E 139°51'0 0.0
2017-Sep-19 05:00N 35°21' E 139°51'0 0.0
2017-Sep-19 04:30N 35°21' E 139°51'0 0.0
2017-Sep-19 04:00N 35°21' E 139°51'0 0.0
2017-Sep-19 03:30N 35°21' E 139°51'0 0.0
2017-Sep-19 03:01N 35°21' E 139°51'0 0.0
2017-Sep-19 02:30N 35°21' E 139°51'0 0.0
2017-Sep-19 02:00N 35°21' E 139°51'0 0.0
2017-Sep-19 01:31N 35°21' E 139°51'0 0.0
2017-Sep-19 01:00N 35°21' E 139°51'0 0.0
2017-Sep-19 00:30N 35°21' E 139°51'0 0.0
2017-Sep-19 00:00N 35°21' E 139°51'0 0.0
2017-Sep-18 23:30N 35°21' E 139°51'0 0.0
2017-Sep-18 23:00N 35°21' E 139°51'0 0.0
2017-Sep-18 22:30N 35°21' E 139°51'0 0.7
2017-Sep-18 21:58N 35°21' E 139°51'0 0.0
2017-Sep-18 21:28N 35°21' E 139°51'0 0.0
2017-Sep-18 20:58N 35°21' E 139°51'0 0.0
2017-Sep-18 20:28N 35°21' E 139°51'0 0.0
2017-Sep-18 19:55N 35°21' E 139°51'0 0.0
2017-Sep-18 19:28N 35°21' E 139°51'0 0.0
2017-Sep-18 18:58N 35°21' E 139°51'0 0.0
2017-Sep-18 18:28N 35°21' E 139°51'0 0.0
2017-Sep-18 17:55N 35°21' E 139°51'0 0.0
2017-Sep-18 17:25N 35°21' E 139°51'0 0.0
2017-Sep-18 16:55N 35°21' E 139°51'0 0.0
2017-Sep-18 16:25N 35°21' E 139°51'0 0.0
2017-Sep-18 15:58N 35°21' E 139°51'0 0.0
2017-Sep-18 15:28N 35°21' E 139°51'0 0.0
2017-Sep-18 14:58N 35°21' E 139°51'0 0.0
2017-Sep-18 14:28N 35°21' E 139°51'0 0.0
2017-Sep-18 13:55N 35°21' E 139°51'0 0.0
2017-Sep-18 13:28N 35°21' E 139°51'0 0.0
2017-Sep-18 12:58N 35°21' E 139°51'0 0.0
2017-Sep-18 12:28N 35°21' E 139°51'0 0.0
2017-Sep-18 11:58N 35°21' E 139°51'0 0.0
2017-Sep-18 11:28N 35°21' E 139°51'0 0.0
2017-Sep-18 10:58N 35°21' E 139°51'0 0.1
2017-Sep-18 10:28N 35°21' E 139°51'0 0.1
2017-Sep-18 09:58N 35°21' E 139°51'0 0.0
2017-Sep-18 09:10N 35°21' E 139°51'0 0.0
2017-Sep-18 08:58N 35°21' E 139°51'0 0.0
2017-Sep-18 08:25N 35°21' E 139°51'0 0.0
2017-Sep-18 07:55N 35°21' E 139°51'1 3.4
2017-Sep-18 07:30N 35°22' E 139°50'611.3
2017-Sep-18 07:00N 35°28' E 139°50'510.9
2017-Sep-18 06:30N 35°34' E 139°51'5 9.1
2017-Sep-18 06:00N 35°37' E 139°48'0 0.1
2017-Sep-18 05:11N 35°37' E 139°48'0 0.0
2017-Sep-18 04:29N 35°37' E 139°48'0 0.0
2017-Sep-17 19:11N 35°37' E 139°48'0 0.0
2017-Sep-17 18:44N 35°37' E 139°48'0 0.0
2017-Sep-17 18:17N 35°37' E 139°48'0 0.0
2017-Sep-17 17:47N 35°37' E 139°48'0 0.0
2017-Sep-17 17:23N 35°37' E 139°48'0 0.0
2017-Sep-17 16:59N 35°37' E 139°48'0 0.0
2017-Sep-16 07:14N 35°37' E 139°48'0 0.2
2017-Sep-16 07:00N 35°37' E 139°48'3 5.5
2017-Sep-16 06:30N 35°36' E 139°51'0 0.0
2017-Sep-16 04:04N 35°36' E 139°51'0 0.0
2017-Sep-16 03:49N 35°36' E 139°51'2 6.4
2017-Sep-16 03:30N 35°34' E 139°52'510.2
2017-Sep-16 03:00N 35°30' E 139°49'510.7
2017-Sep-16 02:30N 35°27' E 139°43'4 7.5
2017-Sep-16 02:00N 35°29' E 139°39'0 0.1
2017-Sep-16 01:29N 35°29' E 139°39'0 0.0
2017-Sep-16 00:59N 35°29' E 139°39'0 0.0
2017-Sep-16 00:29N 35°29' E 139°39'0 0.0
2017-Sep-15 23:59N 35°29' E 139°39'0 0.0
2017-Sep-15 23:29N 35°29' E 139°39'0 0.0
2017-Sep-15 23:00N 35°29' E 139°39'0 1.0
2017-Sep-15 22:30N 35°28' E 139°40'3 6.1
2017-Sep-15 22:00N 35°26' E 139°43'0 0.0
2017-Sep-15 21:30N 35°26' E 139°43'0 0.0
2017-Sep-15 21:00N 35°26' E 139°43'0 0.0
2017-Sep-15 20:30N 35°26' E 139°43'0 0.0
2017-Sep-15 20:00N 35°26' E 139°43'0 0.0
2017-Sep-15 19:30N 35°26' E 139°43'0 0.0
2017-Sep-15 19:00N 35°26' E 139°43'0 0.0
2017-Sep-15 18:30N 35°26' E 139°43'0 0.0
2017-Sep-15 18:00N 35°26' E 139°43'0 0.0
2017-Sep-15 17:30N 35°26' E 139°43'1 1.7
2017-Sep-15 17:00N 35°26' E 139°42'5 9.8
2017-Sep-15 16:30N 35°21' E 139°43'5 9.6
2017-Sep-15 16:00N 35°16' E 139°46'5 9.5
2017-Sep-15 15:30N 35°12' E 139°47'510.2
2017-Sep-15 15:00N 35°07' E 139°45'511.0
2017-Sep-15 14:30N 35°02' E 139°41'611.3
2017-Sep-15 13:58N 34°59' E 139°35'  
Track history (hours):
 
Tides and Currents Weather Stations Pressure Air Temp Water Temp Dewpoint Dewpoint Depression Visibility Wind Speed Wind Dir Waves Ship Positions

Sumihiro Maru

Last reported at 2017-Sep-21 08:25 UTC. Time now 2017-Sep-22 04:19 UTC.
Position N 34°37' E 134°56'.

Length 63 m; draft 4 m.

Type: Cargo ship. MMSI: 431002283.

Date/timePositionNaut miles runAvg speedWind from/ knotsBaromVisibWave heightAir tempDewpointWater temp
2017-Sep-21 08:25N 34°37' E 134°56'5 9.9
2017-Sep-21 07:57N 34°37' E 135°01'3 7.1
2017-Sep-21 07:30N 34°36' E 135°05'4 7.7
2017-Sep-21 07:00N 34°32' E 135°04'219 6.9
2017-Sep-19 23:32N 34°58' E 139°29'1 8.6
2017-Sep-19 23:27N 34°59' E 139°29'4 8.7
2017-Sep-19 23:00N 35°01' E 139°33'5 9.3
2017-Sep-19 22:30N 35°04' E 139°37'510.2
2017-Sep-19 22:00N 35°07' E 139°42'510.6
2017-Sep-19 21:30N 35°12' E 139°46'510.3
2017-Sep-19 21:00N 35°17' E 139°45'510.8
2017-Sep-19 20:30N 35°22' E 139°42'5 9.3
2017-Sep-19 20:00N 35°25' E 139°46'5 9.5
2017-Sep-19 19:30N 35°22' E 139°50'1 2.6
2017-Sep-19 19:00N 35°21' E 139°51'0 0.0
2017-Sep-19 18:30N 35°21' E 139°51'0 0.0
2017-Sep-19 18:00N 35°21' E 139°51'0 0.0
2017-Sep-19 17:30N 35°21' E 139°51'0 0.0
2017-Sep-19 17:01N 35°21' E 139°51'0 0.0
2017-Sep-19 16:30N 35°21' E 139°51'0 0.0
2017-Sep-19 16:00N 35°21' E 139°51'0 0.0
2017-Sep-19 15:30N 35°21' E 139°51'0 0.0
2017-Sep-19 15:00N 35°21' E 139°51'0 0.0
2017-Sep-19 14:30N 35°21' E 139°51'0 0.0
2017-Sep-19 14:01N 35°21' E 139°51'0 0.0
2017-Sep-19 13:30N 35°21' E 139°51'0 0.0
2017-Sep-19 13:00N 35°21' E 139°51'0 0.0
2017-Sep-19 12:30N 35°21' E 139°51'0 0.0
2017-Sep-19 12:00N 35°21' E 139°51'0 0.0
2017-Sep-19 11:30N 35°21' E 139°51'0 0.0
2017-Sep-19 11:00N 35°21' E 139°51'0 0.0
2017-Sep-19 10:30N 35°21' E 139°51'0 0.0
2017-Sep-19 10:00N 35°21' E 139°51'0 0.0
2017-Sep-19 09:30N 35°21' E 139°51'0 0.0
2017-Sep-19 09:00N 35°21' E 139°51'0 0.0
2017-Sep-19 08:30N 35°21' E 139°51'0 0.0
2017-Sep-19 08:00N 35°21' E 139°51'0 0.0
2017-Sep-19 07:30N 35°21' E 139°51'0 0.0
2017-Sep-19 07:00N 35°21' E 139°51'0 0.0
2017-Sep-19 06:30N 35°21' E 139°51'0 0.0
2017-Sep-19 06:00N 35°21' E 139°51'0 0.0
2017-Sep-19 05:30N 35°21' E 139°51'0 0.0
2017-Sep-19 05:00N 35°21' E 139°51'0 0.0
2017-Sep-19 04:30N 35°21' E 139°51'0 0.0
2017-Sep-19 04:00N 35°21' E 139°51'0 0.0
2017-Sep-19 03:30N 35°21' E 139°51'0 0.0
2017-Sep-19 03:01N 35°21' E 139°51'0 0.0
2017-Sep-19 02:30N 35°21' E 139°51'0 0.0
2017-Sep-19 02:00N 35°21' E 139°51'0 0.0
2017-Sep-19 01:31N 35°21' E 139°51'0 0.0
2017-Sep-19 01:00N 35°21' E 139°51'0 0.0
2017-Sep-19 00:30N 35°21' E 139°51'0 0.0
2017-Sep-19 00:00N 35°21' E 139°51'0 0.0
2017-Sep-18 23:30N 35°21' E 139°51'0 0.0
2017-Sep-18 23:00N 35°21' E 139°51'0 0.0
2017-Sep-18 22:30N 35°21' E 139°51'0 0.7
2017-Sep-18 21:58N 35°21' E 139°51'0 0.0
2017-Sep-18 21:28N 35°21' E 139°51'0 0.0
2017-Sep-18 20:58N 35°21' E 139°51'0 0.0
2017-Sep-18 20:28N 35°21' E 139°51'0 0.0
2017-Sep-18 19:55N 35°21' E 139°51'0 0.0
2017-Sep-18 19:28N 35°21' E 139°51'0 0.0
2017-Sep-18 18:58N 35°21' E 139°51'0 0.0
2017-Sep-18 18:28N 35°21' E 139°51'0 0.0
2017-Sep-18 17:55N 35°21' E 139°51'0 0.0
2017-Sep-18 17:25N 35°21' E 139°51'0 0.0
2017-Sep-18 16:55N 35°21' E 139°51'0 0.0
2017-Sep-18 16:25N 35°21' E 139°51'0 0.0
2017-Sep-18 15:58N 35°21' E 139°51'0 0.0
2017-Sep-18 15:28N 35°21' E 139°51'0 0.0
2017-Sep-18 14:58N 35°21' E 139°51'0 0.0
2017-Sep-18 14:28N 35°21' E 139°51'0 0.0
2017-Sep-18 13:55N 35°21' E 139°51'0 0.0
2017-Sep-18 13:28N 35°21' E 139°51'0 0.0
2017-Sep-18 12:58N 35°21' E 139°51'0 0.0
2017-Sep-18 12:28N 35°21' E 139°51'0 0.0
2017-Sep-18 11:58N 35°21' E 139°51'0 0.0
2017-Sep-18 11:28N 35°21' E 139°51'0 0.0
2017-Sep-18 10:58N 35°21' E 139°51'0 0.1
2017-Sep-18 10:28N 35°21' E 139°51'0 0.1
2017-Sep-18 09:58N 35°21' E 139°51'0 0.0
2017-Sep-18 09:10N 35°21' E 139°51'0 0.0
2017-Sep-18 08:58N 35°21' E 139°51'0 0.0
2017-Sep-18 08:25N 35°21' E 139°51'0 0.0
2017-Sep-18 07:55N 35°21' E 139°51'1 3.4
2017-Sep-18 07:30N 35°22' E 139°50'611.3
2017-Sep-18 07:00N 35°28' E 139°50'510.9
2017-Sep-18 06:30N 35°34' E 139°51'5 9.1
2017-Sep-18 06:00N 35°37' E 139°48'0 0.1
2017-Sep-18 05:11N 35°37' E 139°48'0 0.0
2017-Sep-18 04:29N 35°37' E 139°48'0 0.0
2017-Sep-17 19:11N 35°37' E 139°48'0 0.0
2017-Sep-17 18:44N 35°37' E 139°48'0 0.0
2017-Sep-17 18:17N 35°37' E 139°48'0 0.0
2017-Sep-17 17:47N 35°37' E 139°48'0 0.0
2017-Sep-17 17:23N 35°37' E 139°48'0 0.0
2017-Sep-17 16:59N 35°37' E 139°48'0 0.0
2017-Sep-16 07:14N 35°37' E 139°48'0 0.2
2017-Sep-16 07:00N 35°37' E 139°48'3 5.5
2017-Sep-16 06:30N 35°36' E 139°51'0 0.0
2017-Sep-16 04:04N 35°36' E 139°51'0 0.0
2017-Sep-16 03:49N 35°36' E 139°51'2 6.4
2017-Sep-16 03:30N 35°34' E 139°52'510.2
2017-Sep-16 03:00N 35°30' E 139°49'510.7
2017-Sep-16 02:30N 35°27' E 139°43'4 7.5
2017-Sep-16 02:00N 35°29' E 139°39'0 0.1
2017-Sep-16 01:29N 35°29' E 139°39'0 0.0
2017-Sep-16 00:59N 35°29' E 139°39'0 0.0
2017-Sep-16 00:29N 35°29' E 139°39'0 0.0
2017-Sep-15 23:59N 35°29' E 139°39'0 0.0
2017-Sep-15 23:29N 35°29' E 139°39'0 0.0
2017-Sep-15 23:00N 35°29' E 139°39'0 1.0
2017-Sep-15 22:30N 35°28' E 139°40'3 6.1
2017-Sep-15 22:00N 35°26' E 139°43'0 0.0
2017-Sep-15 21:30N 35°26' E 139°43'0 0.0
2017-Sep-15 21:00N 35°26' E 139°43'0 0.0
2017-Sep-15 20:30N 35°26' E 139°43'0 0.0
2017-Sep-15 20:00N 35°26' E 139°43'0 0.0
2017-Sep-15 19:30N 35°26' E 139°43'0 0.0
2017-Sep-15 19:00N 35°26' E 139°43'0 0.0
2017-Sep-15 18:30N 35°26' E 139°43'0 0.0
2017-Sep-15 18:00N 35°26' E 139°43'0 0.0
2017-Sep-15 17:30N 35°26' E 139°43'1 1.7
2017-Sep-15 17:00N 35°26' E 139°42'5 9.8
2017-Sep-15 16:30N 35°21' E 139°43'5 9.6
2017-Sep-15 16:00N 35°16' E 139°46'5 9.5
2017-Sep-15 15:30N 35°12' E 139°47'510.2
2017-Sep-15 15:00N 35°07' E 139°45'511.0
2017-Sep-15 14:30N 35°02' E 139°41'611.3
2017-Sep-15 13:58N 34°59' E 139°35'  

Dump ship's entire track history